Time;durP1;ratioP1;P1;durP2;ratioP2;P2;SDS_P1;SDS_P2;PMS_P1;PMS_P2;Temp;Humidity;BMP_temperature;BMP_pressure;BME280_temperature;BME280_humidity;BME280_pressure;Samples;Min_cycle;Max_cycle;Signal;HPM_P1;HPM_P2
2022/05/25 00:00:25;;;;;;;15.57;9.33;;;;;;;11.71;91.50;99777.81;5045069;28;20622;-59
2022/05/25 00:02:51;;;;;;;6.50;5.07;;;;;;;11.73;91.14;99773.38;5049941;28;20173;-59
2022/05/25 00:05:17;;;;;;;19.90;15.57;;;;;;;11.70;91.32;99779.56;5052274;28;20541;-58
2022/05/25 00:07:43;;;;;;;8.70;5.37;;;;;;;11.70;91.72;99779.56;5041113;28;20262;-59
2022/05/25 00:10:09;;;;;;;6.73;5.67;;;;;;;11.57;91.56;99784.69;5038850;28;20635;-59
2022/05/25 00:12:34;;;;;;;5.83;4.70;;;;;;;11.59;92.23;99785.41;5046595;28;20668;-60
2022/05/25 00:15:00;;;;;;;3.30;2.30;;;;;;;11.64;91.59;99787.69;5051591;28;20180;-60
2022/05/25 00:17:26;;;;;;;5.93;3.70;;;;;;;11.73;92.08;99776.81;5049719;28;20244;-67
2022/05/25 00:20:00;;;;;;;9.23;6.57;;;;;;;11.71;92.44;99788.94;5052034;28;20173;-59
2022/05/25 00:22:28;;;;;;;5.60;4.27;;;;;;;11.69;92.84;99775.31;5056439;28;20224;-60
2022/05/25 00:24:57;;;;;;;4.80;3.43;;;;;;;11.71;92.48;99785.53;5049945;28;20185;-60
2022/05/25 00:27:23;;;;;;;2.80;1.50;;;;;;;11.69;93.22;99777.91;5063569;28;20177;-60
2022/05/25 00:29:48;;;;;;;13.17;9.30;;;;;;;11.73;93.21;99774.22;5037512;28;20463;-59
2022/05/25 00:32:13;;;;;;;4.57;3.70;;;;;;;11.75;92.75;99776.69;5037194;28;20229;-60
2022/05/25 00:34:39;;;;;;;11.20;8.33;;;;;;;11.75;93.15;99779.28;5031856;28;20179;-60
2022/05/25 00:37:04;;;;;;;10.17;6.77;;;;;;;11.75;93.23;99776.69;5030999;28;20724;-60
2022/05/25 00:39:29;;;;;;;13.13;6.83;;;;;;;11.74;93.90;99772.47;5031654;28;20200;-59
2022/05/25 00:41:55;;;;;;;7.00;5.03;;;;;;;11.76;93.42;99775.78;5051390;28;20602;-60
2022/05/25 00:44:21;;;;;;;3.17;2.30;;;;;;;11.80;93.64;99774.66;5033759;28;20557;-60
2022/05/25 00:46:47;;;;;;;9.93;7.93;;;;;;;11.81;93.25;99775.47;5050429;28;20608;-60
2022/05/25 00:49:22;;;;;;;4.47;3.97;;;;;;;11.76;93.33;99778.34;5049839;28;20172;-59
2022/05/25 00:51:54;;;;;;;2.30;2.00;;;;;;;11.70;93.74;99778.75;5054211;28;20769;-60
2022/05/25 00:54:27;;;;;;;9.57;6.00;;;;;;;11.58;95.70;99773.44;5049441;28;20264;-59
2022/05/25 00:56:55;;;;;;;5.20;2.90;;;;;;;11.54;96.25;99777.13;5049333;28;20279;-59
2022/05/25 00:59:27;;;;;;;6.83;2.57;;;;;;;11.32;96.54;99787.97;5049918;28;20173;-60
2022/05/25 01:01:52;;;;;;;2.80;2.20;;;;;;;11.20;97.44;99781.84;5058708;28;20227;-59
2022/05/25 01:04:18;;;;;;;2.93;2.67;;;;;;;11.14;98.24;99787.38;5037657;28;20186;-59
2022/05/25 01:07:26;;;;;;;4.77;2.47;;;;;;;11.16;98.36;99792.44;5030817;28;20304;-59
2022/05/25 01:09:51;;;;;;;3.63;3.13;;;;;;;10.86;100.00;99789.06;4953939;28;20723;-59
2022/05/25 01:12:44;;;;;;;5.70;4.13;;;;;;;10.71;100.00;99800.28;5025039;28;20351;-59
2022/05/25 01:15:59;;;;;;;1.80;1.50;;;;;;;10.75;100.00;99797.41;5031238;28;20205;-61
2022/05/25 01:18:39;;;;;;;4.40;2.50;;;;;;;10.64;100.00;99797.25;5007876;28;20292;-60
2022/05/25 01:21:23;;;;;;;12.47;8.00;;;;;;;10.70;100.00;99801.19;5022676;28;20232;-59
2022/05/25 01:24:09;;;;;;;1.83;1.60;;;;;;;10.64;100.00;99798.09;5014245;28;20270;-59
2022/05/25 01:27:12;;;;;;;11.07;8.20;;;;;;;10.64;100.00;99808.38;4992046;28;20370;-60
2022/05/25 01:30:03;;;;;;;7.43;3.77;;;;;;;10.55;100.00;99811.47;5008697;28;20256;-59
2022/05/25 01:32:31;;;;;;;3.63;2.40;;;;;;;10.54;100.00;99814.97;4979545;28;20207;-59
2022/05/25 01:35:22;;;;;;;5.10;4.10;;;;;;;10.48;100.00;99812.75;4989287;28;20203;-59
2022/05/25 01:37:57;;;;;;;6.37;3.70;;;;;;;10.30;100.00;99815.44;4998479;28;20210;-59
2022/05/25 01:40:38;;;;;;;4.07;3.27;;;;;;;10.25;100.00;99812.31;4988192;28;20665;-58
2022/05/25 01:43:41;;;;;;;6.80;5.07;;;;;;;10.25;100.00;99816.66;5023650;28;20544;-59
2022/05/25 01:46:13;;;;;;;3.50;1.80;;;;;;;10.27;100.00;99820.78;5026024;28;20238;-59
2022/05/25 01:48:41;;;;;;;10.20;5.20;;;;;;;10.29;100.00;99818.13;5012005;28;20186;-58
2022/05/25 01:51:13;;;;;;;9.73;5.20;;;;;;;10.26;100.00;99819.13;5001350;28;20684;-58
2022/05/25 01:53:43;;;;;;;2.83;2.37;;;;;;;10.27;100.00;99817.38;5039137;28;20207;-59
2022/05/25 01:56:12;;;;;;;7.30;5.47;;;;;;;10.22;100.00;99814.25;5044206;28;20177;-59
2022/05/25 01:58:42;;;;;;;3.30;2.10;;;;;;;10.21;100.00;99813.41;5066999;28;20236;-58
2022/05/25 02:01:09;;;;;;;4.20;3.40;;;;;;;10.25;100.00;99814.88;5071637;28;20323;-58
2022/05/25 02:06:44;;;;;;;3.53;2.13;;;;;;;10.06;100.00;99822.00;5054053;28;20184;-58
2022/05/25 02:09:46;;;;;;;3.13;1.80;;;;;;;9.90;100.00;99822.88;5053082;28;20205;-58
2022/05/25 02:12:33;;;;;;;2.37;2.17;;;;;;;9.76;100.00;99817.66;5055928;28;20223;-59
2022/05/25 02:14:58;;;;;;;1.70;1.60;;;;;;;9.82;100.00;99822.47;5051105;28;20181;-58
2022/05/25 02:18:03;;;;;;;4.77;3.60;;;;;;;9.74;100.00;99824.66;5033856;28;20252;-58
2022/05/25 02:20:59;;;;;;;3.43;3.03;;;;;;;9.65;100.00;99831.09;5042584;28;20232;-58
2022/05/25 02:23:30;;;;;;;3.77;2.13;;;;;;;9.65;100.00;99831.94;5062074;28;20221;-59
2022/05/25 02:26:11;;;;;;;2.97;2.67;;;;;;;9.58;100.00;99830.63;5054266;28;20231;-59
2022/05/25 02:28:43;;;;;;;3.20;2.20;;;;;;;9.43;100.00;99831.47;5052903;28;20208;-58
2022/05/25 02:31:17;;;;;;;11.93;8.80;;;;;;;9.23;100.00;99835.94;5045749;28;20262;-59
2022/05/25 02:33:48;;;;;;;12.57;10.00;;;;;;;9.24;100.00;99829.88;5055834;28;20200;-59
2022/05/25 02:36:15;;;;;;;9.13;7.13;;;;;;;9.18;100.00;99838.72;5069034;28;20243;-59
2022/05/25 02:38:43;;;;;;;12.07;8.73;;;;;;;9.10;100.00;99842.63;5069229;28;20208;-59
2022/05/25 02:41:26;;;;;;;2.90;1.97;;;;;;;9.09;100.00;99848.66;5071004;28;20219;-59
2022/05/25 02:43:52;;;;;;;4.00;2.10;;;;;;;9.22;100.00;99853.97;5074128;28;20176;-59
2022/05/25 02:46:17;;;;;;;3.13;2.77;;;;;;;9.30;100.00;99856.94;5053121;28;20962;-59
2022/05/25 02:48:43;;;;;;;2.60;1.93;;;;;;;9.24;100.00;99847.00;5053023;28;20220;-60
2022/05/25 02:51:08;;;;;;;3.03;2.43;;;;;;;9.26;100.00;99855.47;5068796;28;20228;-59
2022/05/25 02:53:34;;;;;;;13.87;9.07;;;;;;;9.22;100.00;99846.28;5068024;28;20257;-59
2022/05/25 02:56:00;;;;;;;3.10;1.70;;;;;;;9.24;100.00;99858.13;5068720;28;20181;-60
2022/05/25 02:58:27;;;;;;;6.40;4.13;;;;;;;9.26;100.00;99853.72;5053374;28;20197;-59
2022/05/25 03:00:52;;;;;;;6.93;4.93;;;;;;;9.12;100.00;99851.88;5037696;28;20255;-58
2022/05/25 03:03:18;;;;;;;1.97;1.73;;;;;;;9.22;100.00;99857.38;5052613;28;20182;-58
2022/05/25 03:05:43;;;;;;;2.83;2.53;;;;;;;9.24;100.00;99857.28;5053171;28;20165;-58
2022/05/25 03:08:08;;;;;;;4.53;2.53;;;;;;;9.26;100.00;99856.28;5046794;28;20539;-57
2022/05/25 03:10:34;;;;;;;4.33;2.50;;;;;;;9.23;100.00;99863.31;5043529;28;20319;-57
2022/05/25 03:12:59;;;;;;;2.87;1.70;;;;;;;9.10;100.00;99865.69;5077041;28;20550;-59
2022/05/25 03:15:25;;;;;;;7.93;2.57;;;;;;;9.06;100.00;99857.34;5044389;28;20607;-58
2022/05/25 03:17:50;;;;;;;2.93;1.70;;;;;;;9.15;100.00;99861.16;5067777;28;20229;-59
2022/05/25 03:20:17;;;;;;;4.03;1.33;;;;;;;9.26;100.00;99863.16;5035539;28;20196;-59
2022/05/25 03:22:44;;;;;;;2.10;1.87;;;;;;;9.37;100.00;99868.56;5060195;28;20274;-60
2022/05/25 03:25:11;;;;;;;1.93;1.40;;;;;;;9.48;100.00;99865.41;5043394;28;20253;-59
2022/05/25 03:27:36;;;;;;;2.80;1.63;;;;;;;9.46;100.00;99865.47;5050157;28;20180;-59
2022/05/25 03:30:04;;;;;;;2.60;1.70;;;;;;;9.47;100.00;99869.72;5039311;28;20579;-59
2022/05/25 03:32:29;;;;;;;2.37;1.77;;;;;;;9.46;100.00;99873.19;5037026;28;20273;-60
2022/05/25 03:34:54;;;;;;;1.93;1.57;;;;;;;9.40;100.00;99875.25;5052612;28;20666;-58
2022/05/25 03:37:20;;;;;;;2.07;1.87;;;;;;;9.40;100.00;99882.97;5051959;28;20228;-59
2022/05/25 03:39:45;;;;;;;2.40;1.63;;;;;;;9.32;100.00;99873.09;5052377;28;20647;-60
2022/05/25 03:42:14;;;;;;;3.10;1.97;;;;;;;9.20;100.00;99883.13;5074207;28;20223;-60
2022/05/25 03:44:39;;;;;;;2.53;2.03;;;;;;;9.26;100.00;99879.38;5067700;28;20690;-58
2022/05/25 03:47:05;;;;;;;2.17;1.93;;;;;;;9.24;100.00;99886.34;5048368;28;20193;-60
2022/05/25 03:49:30;;;;;;;4.10;1.80;;;;;;;9.31;100.00;99889.41;5050670;28;20238;-60
2022/05/25 03:51:56;;;;;;;2.83;2.10;;;;;;;9.30;100.00;99891.16;5072181;28;20227;-60
2022/05/25 03:54:21;;;;;;;2.03;1.83;;;;;;;9.32;100.00;99893.66;5068445;28;20211;-60
2022/05/25 03:56:47;;;;;;;3.37;1.80;;;;;;;9.34;100.00;99899.50;5051700;28;20187;-60
2022/05/25 03:59:12;;;;;;;3.40;1.87;;;;;;;9.24;100.00;99900.91;5051959;28;20300;-60
2022/05/25 04:01:37;;;;;;;2.93;1.80;;;;;;;9.30;100.00;99908.28;5056247;28;20315;-60
2022/05/25 04:04:04;;;;;;;2.57;2.27;;;;;;;9.44;100.00;99903.25;5056211;28;20184;-60
2022/05/25 04:06:30;;;;;;;2.97;1.63;;;;;;;9.53;100.00;99907.09;5046326;28;20195;-59
2022/05/25 04:08:55;;;;;;;3.43;1.87;;;;;;;9.49;100.00;99901.28;5051912;28;20486;-61
2022/05/25 04:11:20;;;;;;;6.00;1.90;;;;;;;9.53;100.00;99910.47;5054048;28;20282;-59
2022/05/25 04:13:45;;;;;;;2.13;1.57;;;;;;;9.65;100.00;99910.72;5062753;28;20188;-60
2022/05/25 04:16:11;;;;;;;4.10;1.80;;;;;;;9.58;100.00;99915.34;5051695;28;20654;-60
2022/05/25 04:18:36;;;;;;;2.60;1.40;;;;;;;9.59;100.00;99917.03;5051577;28;20596;-60
2022/05/25 04:21:02;;;;;;;1.60;1.50;;;;;;;9.82;100.00;99918.38;5051474;28;20216;-60
2022/05/25 04:23:28;;;;;;;4.27;2.13;;;;;;;9.92;100.00;99917.84;5059158;28;20226;-60
2022/05/25 04:25:54;;;;;;;1.60;1.50;;;;;;;9.96;100.00;99909.03;5050369;28;20174;-59
2022/05/25 04:28:20;;;;;;;3.93;1.77;;;;;;;10.18;100.00;99908.69;5049622;28;20196;-59
2022/05/25 04:30:46;;;;;;;3.57;1.90;;;;;;;10.26;100.00;99911.66;5049124;28;20639;-59
2022/05/25 04:33:11;;;;;;;2.10;1.50;;;;;;;10.16;100.00;99913.91;5072198;28;20188;-59
2022/05/25 04:35:36;;;;;;;3.13;1.90;;;;;;;10.33;100.00;99925.00;5066567;28;20181;-60
2022/05/25 04:38:03;;;;;;;5.57;1.90;;;;;;;10.57;100.00;99915.09;5049992;28;20197;-60
2022/05/25 04:40:40;;;;;;;3.10;1.90;;;;;;;10.75;100.00;99923.47;5044295;28;20301;-60
2022/05/25 04:43:12;;;;;;;3.80;2.37;;;;;;;11.02;100.00;99930.50;5061445;28;20712;-61
2022/05/25 04:45:42;;;;;;;3.63;1.93;;;;;;;11.16;100.00;99928.88;5049102;28;20207;-61
2022/05/25 04:48:08;;;;;;;2.03;1.50;;;;;;;11.29;100.00;99930.63;5051026;28;20383;-60
2022/05/25 04:50:36;;;;;;;1.10;1.07;;;;;;;11.35;100.00;99938.88;5042500;28;20735;-60
2022/05/25 04:53:03;;;;;;;1.63;1.20;;;;;;;11.43;100.00;99934.09;5033122;28;20203;-60
2022/05/25 04:58:19;;;;;;;2.23;1.40;;;;;;;11.61;100.00;99943.28;5029108;28;20219;-61
2022/05/25 05:00:44;;;;;;;1.67;1.53;;;;;;;11.71;100.00;99947.84;5052092;28;20227;-60
2022/05/25 05:03:09;;;;;;;2.87;1.77;;;;;;;11.66;100.00;99949.91;5071848;28;20196;-60
2022/05/25 05:05:35;;;;;;;4.23;1.67;;;;;;;11.82;100.00;99950.63;5050767;28;20256;-62
2022/05/25 05:08:00;;;;;;;2.27;1.47;;;;;;;11.89;100.00;99956.22;5050647;28;20231;-62
2022/05/25 05:10:26;;;;;;;1.80;1.40;;;;;;;12.02;100.00;99954.56;5042923;28;20256;-60
2022/05/25 05:12:51;;;;;;;4.33;1.60;;;;;;;12.08;100.00;99945.59;5034799;28;20177;-60
2022/05/25 05:15:16;;;;;;;2.40;1.37;;;;;;;12.44;100.00;99951.91;5050830;28;20730;-60
2022/05/25 05:17:41;;;;;;;1.50;1.40;;;;;;;12.57;99.71;99960.50;5050111;28;20233;-60
2022/05/25 05:20:08;;;;;;;4.77;1.50;;;;;;;12.70;98.35;99962.28;5037264;28;20174;-61
2022/05/25 05:22:34;;;;;;;1.90;1.40;;;;;;;12.92;97.33;99966.84;5045049;28;20208;-60
2022/05/25 05:24:59;;;;;;;2.73;1.30;;;;;;;12.92;95.64;99966.84;5029624;28;20185;-60
2022/05/25 05:27:25;;;;;;;6.80;1.70;;;;;;;13.03;96.35;99963.56;5030538;28;20255;-61
2022/05/25 05:29:50;;;;;;;1.97;1.20;;;;;;;13.24;94.68;99971.63;5066141;28;20277;-60
2022/05/25 05:32:16;;;;;;;2.13;1.30;;;;;;;13.26;94.59;99974.09;5063150;28;20214;-60
2022/05/25 05:34:41;;;;;;;1.93;1.30;;;;;;;13.30;95.42;99985.88;5049214;28;20652;-62
2022/05/25 05:37:16;;;;;;;3.57;1.97;;;;;;;13.35;92.72;99981.22;5054297;28;20165;-61
2022/05/25 05:39:44;;;;;;;3.10;1.83;;;;;;;13.53;90.06;99980.00;5053378;28;20212;-61
2022/05/25 05:42:15;;;;;;;0.77;0.77;;;;;;;13.37;87.26;99982.81;5040064;28;20295;-60
2022/05/25 05:44:49;;;;;;;1.10;1.00;;;;;;;13.44;85.73;99988.38;5050678;28;20189;-61
2022/05/25 05:47:19;;;;;;;1.50;1.00;;;;;;;13.53;84.44;99992.91;5056313;28;20181;-62
2022/05/25 05:49:44;;;;;;;2.57;1.00;;;;;;;13.77;84.89;99999.06;5050003;28;20660;-60
2022/05/25 05:52:10;;;;;;;2.03;1.00;;;;;;;13.92;82.20;99999.75;5075646;28;20311;-60
2022/05/25 05:54:38;;;;;;;3.80;1.73;;;;;;;13.87;81.04;100005.25;5052609;28;20227;-61
2022/05/25 05:57:05;;;;;;;2.10;1.20;;;;;;;14.06;81.25;99996.22;5065950;28;20239;-60
2022/05/25 05:59:30;;;;;;;1.20;1.10;;;;;;;14.22;81.35;100003.72;5059812;28;20669;-62
2022/05/25 06:01:56;;;;;;;5.13;1.23;;;;;;;14.33;78.86;100004.56;5043518;28;20301;-61
2022/05/25 06:04:22;;;;;;;2.00;1.20;;;;;;;14.23;78.22;100001.00;5053798;28;20188;-62
2022/05/25 06:06:47;;;;;;;2.50;1.33;;;;;;;14.09;78.79;100007.16;5053309;28;20178;-61
2022/05/25 06:09:13;;;;;;;2.70;1.10;;;;;;;14.29;79.71;100004.91;5053797;28;20177;-61
2022/05/25 06:11:41;;;;;;;2.00;1.33;;;;;;;14.55;78.04;100015.13;5068724;28;20311;-60
2022/05/25 06:14:07;;;;;;;1.73;1.10;;;;;;;14.70;75.28;100021.84;5054982;28;20250;-60
2022/05/25 06:19:25;;;;;;;1.47;0.77;;;;;;;15.16;73.61;100031.34;5053295;28;20726;-61
2022/05/25 06:22:04;;;;;;;1.50;0.93;;;;;;;15.24;71.97;100037.75;5034736;28;20225;-61
2022/05/25 06:24:34;;;;;;;1.00;0.90;;;;;;;15.47;70.62;100043.78;5065593;28;20182;-60
2022/05/25 06:27:00;;;;;;;4.63;1.20;;;;;;;16.09;66.51;100039.88;5047984;28;20178;-59
2022/05/25 06:29:25;;;;;;;1.80;1.10;;;;;;;17.03;62.63;100043.69;5033513;28;20181;-63
2022/05/25 06:31:51;;;;;;;1.63;0.90;;;;;;;18.37;57.99;100039.31;5052052;28;20226;-61
2022/05/25 06:34:16;;;;;;;1.40;0.80;;;;;;;18.98;52.02;100035.59;5054638;28;20541;-61
2022/05/25 06:36:42;;;;;;;6.10;1.30;;;;;;;21.33;46.66;100048.16;5037287;28;20178;-60
2022/05/25 06:39:08;;;;;;;0.83;0.63;;;;;;;21.59;43.57;100059.47;5040527;28;20263;-62
2022/05/25 06:41:34;;;;;;;1.23;0.70;;;;;;;21.26;44.89;100063.66;5049881;28;20619;-60
2022/05/25 06:44:00;;;;;;;2.10;0.77;;;;;;;22.20;42.46;100061.97;5056581;28;20268;-60
2022/05/25 06:46:26;;;;;;;1.70;0.90;;;;;;;22.49;40.91;100068.56;5041678;28;20252;-61
2022/05/25 06:48:54;;;;;;;1.77;0.77;;;;;;;22.20;41.40;100069.81;5074340;28;20217;-60
2022/05/25 06:51:24;;;;;;;0.90;0.80;;;;;;;23.59;38.68;100074.38;5072523;28;20223;-74
2022/05/25 06:53:50;;;;;;;2.00;0.70;;;;;;;22.89;38.74;100079.25;5052802;28;20177;-63
2022/05/25 06:56:19;;;;;;;0.60;0.60;;;;;;;23.67;37.36;100072.53;5056764;28;20184;-64
2022/05/25 06:58:45;;;;;;;0.75;0.50;;;;;;;24.08;36.39;100084.69;5059705;28;20217;-64
2022/05/25 07:01:10;;;;;;;2.53;0.68;;;;;;;24.88;34.68;100080.06;5043822;27;20259;-65
2022/05/25 07:03:38;;;;;;;2.15;0.70;;;;;;;24.43;35.20;100076.44;5067227;28;20222;-65
2022/05/25 07:06:06;;;;;;;3.33;0.73;;;;;;;24.47;35.19;100080.34;5062475;28;20184;-66
2022/05/25 07:08:32;;;;;;;2.80;0.70;;;;;;;24.45;35.13;100084.97;5050703;28;20582;-63
2022/05/25 07:10:57;;;;;;;1.05;0.73;;;;;;;24.30;36.34;100082.28;5056187;28;20259;-63
2022/05/25 07:13:23;;;;;;;0.40;0.40;;;;;;;25.40;33.61;100088.13;5029641;28;20269;-63
2022/05/25 07:15:49;;;;;;;1.95;0.75;;;;;;;24.98;33.51;100085.88;5041758;28;20230;-65
2022/05/25 07:18:14;;;;;;;2.42;0.60;;;;;;;25.89;32.11;100084.91;5060578;28;20221;-64
2022/05/25 07:20:39;;;;;;;0.40;0.38;;;;;;;26.08;31.76;100093.28;5047439;28;21011;-65
2022/05/25 07:23:05;;;;;;;1.83;0.65;;;;;;;26.86;30.65;100095.25;5060070;28;20190;-64
2022/05/25 07:25:30;;;;;;;0.70;0.70;;;;;;;25.58;31.88;100101.75;5032948;28;20178;-64
2022/05/25 07:27:55;;;;;;;0.40;0.40;;;;;;;26.37;30.90;100095.00;5035676;28;20189;-68
2022/05/25 07:30:21;;;;;;;1.25;0.70;;;;;;;26.66;31.04;100100.34;5010663;28;20185;-67
2022/05/25 07:32:47;;;;;;;3.38;1.30;;;;;;;26.57;30.75;100103.09;5046610;28;20182;-66
2022/05/25 07:35:15;;;;;;;1.13;0.52;;;;;;;27.41;30.19;100099.91;5031461;28;20182;-66
2022/05/25 07:37:43;;;;;;;2.55;0.60;;;;;;;27.69;29.21;100113.06;5027227;28;20210;-69
2022/05/25 07:40:14;;;;;;;0.47;0.40;;;;;;;28.24;28.26;100101.69;5032547;28;20194;-65
2022/05/25 07:42:42;;;;;;;1.33;0.50;;;;;;;27.32;29.26;100102.69;5033339;28;20209;-65
2022/05/25 07:45:09;;;;;;;1.98;0.75;;;;;;;25.60;30.99;100112.09;5031744;28;20182;-65
2022/05/25 07:47:34;;;;;;;0.75;0.50;;;;;;;25.74;30.44;100106.03;5024558;28;20274;-64
2022/05/25 07:50:00;;;;;;;1.38;0.40;;;;;;;27.35;29.15;100102.31;5031859;28;20309;-64
2022/05/25 07:52:28;;;;;;;2.78;0.88;;;;;;;26.31;28.65;100103.66;4986066;28;20345;-65
2022/05/25 07:54:55;;;;;;;2.25;0.70;;;;;;;25.32;30.86;100102.19;5027349;28;20182;-65
2022/05/25 07:57:20;;;;;;;2.10;0.63;;;;;;;25.86;30.71;100106.38;5031015;28;20208;-65
2022/05/25 07:59:45;;;;;;;2.13;0.60;;;;;;;24.34;32.22;100108.03;5026841;28;20924;-64
2022/05/25 08:07:47;;;;;;;1.63;0.60;;;;;;;26.74;31.12;100108.13;5031681;28;20200;-65
2022/05/25 08:10:17;;;;;;;0.55;0.40;;;;;;;28.41;27.84;100115.38;5006289;28;20179;-65
2022/05/25 08:12:44;;;;;;;0.95;0.52;;;;;;;26.96;28.40;100121.31;5043262;28;20209;-65
2022/05/25 08:15:11;;;;;;;0.80;0.47;;;;;;;27.27;29.41;100120.13;5030191;28;20547;-68
2022/05/25 08:17:36;;;;;;;1.75;0.65;;;;;;;28.71;27.71;100110.53;5029545;28;20298;-64
2022/05/25 08:20:03;;;;;;;1.55;0.60;;;;;;;29.12;25.45;100122.72;5029656;28;20612;-64
2022/05/25 08:22:28;;;;;;;1.60;0.60;;;;;;;30.24;24.70;100119.16;4984778;28;20264;-65
2022/05/25 08:24:54;;;;;;;1.83;0.70;;;;;;;29.55;25.27;100113.50;5031231;28;20267;-65
2022/05/25 08:27:19;;;;;;;1.50;0.63;;;;;;;29.60;24.99;100115.53;5031078;28;20202;-65
2022/05/25 08:29:44;;;;;;;1.15;0.73;;;;;;;29.97;25.21;100117.66;5031693;28;20220;-64
2022/05/25 08:32:10;;;;;;;0.73;0.50;;;;;;;29.94;24.59;100119.72;5065725;28;20217;-64
2022/05/25 08:34:36;;;;;;;2.05;0.73;;;;;;;28.93;26.15;100124.38;5032223;28;20192;-66
2022/05/25 08:37:02;;;;;;;0.85;0.40;;;;;;;29.69;24.93;100113.47;5044433;28;20181;-65
2022/05/25 08:39:27;;;;;;;1.02;0.60;;;;;;;29.86;24.60;100114.63;5046854;28;20189;-65
2022/05/25 08:41:56;;;;;;;1.67;0.60;;;;;;;29.89;24.05;100118.69;5058508;28;20755;-64
2022/05/25 08:44:23;;;;;;;1.63;0.70;;;;;;;30.58;23.29;100125.06;5031071;28;20281;-68
2022/05/25 08:46:55;;;;;;;1.33;0.50;;;;;;;30.80;23.39;100115.91;5029947;28;20257;-65
2022/05/25 08:49:22;;;;;;;1.05;0.50;;;;;;;30.81;24.31;100121.03;5032221;28;20685;-66
2022/05/25 08:51:51;;;;;;;2.30;0.63;;;;;;;28.63;25.82;100118.66;5039027;28;20249;-65
2022/05/25 08:54:19;;;;;;;0.98;0.50;;;;;;;27.03;28.67;100116.91;5055931;28;20182;-65
2022/05/25 08:56:52;;;;;;;1.45;0.75;;;;;;;27.15;28.07;100112.75;5046583;28;20186;-64
2022/05/25 08:59:17;;;;;;;4.68;0.70;;;;;;;29.15;25.41;100103.81;5046111;28;20213;-65
2022/05/25 09:01:50;;;;;;;2.25;0.73;;;;;;;29.80;24.37;100107.50;5033513;28;20224;-64
2022/05/25 09:04:44;;;;;;;1.17;0.70;;;;;;;28.75;24.94;100098.56;5029990;28;20344;-67
2022/05/25 09:07:19;;;;;;;2.08;0.68;;;;;;;30.10;24.05;100099.84;5045964;28;20227;-63
2022/05/25 09:09:47;;;;;;;2.20;0.95;;;;;;;28.30;25.47;100099.06;5046305;28;20652;-65
2022/05/25 09:12:38;;;;;;;0.82;0.22;;;;;;;25.09;29.96;100107.50;5069791;28;20278;-64
2022/05/25 09:15:15;;;;;;;1.25;0.70;;;;;;;23.93;32.13;100110.06;5051226;28;20185;-63
2022/05/25 09:17:49;;;;;;;2.25;0.93;;;;;;;23.12;34.58;100116.13;5050226;28;20251;-68
2022/05/25 09:20:23;;;;;;;2.22;0.80;;;;;;;22.85;35.13;100110.22;5041385;28;20185;-64
2022/05/25 09:22:49;;;;;;;4.43;0.70;;;;;;;22.40;36.66;100114.91;5064063;28;20168;-63
2022/05/25 09:25:16;;;;;;;0.70;0.40;;;;;;;22.28;36.83;100108.31;5049923;28;20177;-63
2022/05/25 09:28:07;;;;;;;2.60;0.50;;;;;;;21.64;37.76;100116.56;5045332;28;20212;-63
2022/05/25 09:30:37;;;;;;;1.60;0.87;;;;;;;21.34;39.35;100112.59;5045236;28;20736;-63
2022/05/25 09:33:18;;;;;;;1.07;0.60;;;;;;;20.96;40.19;100116.25;5049142;28;20186;-63
2022/05/25 09:35:56;;;;;;;2.83;0.70;;;;;;;22.65;37.71;100109.72;5040614;28;20219;-64
2022/05/25 09:38:31;;;;;;;0.90;0.57;;;;;;;25.65;32.94;100112.41;5037564;28;20205;-64
2022/05/25 09:41:03;;;;;;;1.13;0.60;;;;;;;27.22;30.14;100110.13;5049300;28;20309;-64
2022/05/25 09:43:31;;;;;;;2.58;0.60;;;;;;;28.80;26.68;100105.84;5057057;28;20260;-65
2022/05/25 09:46:03;;;;;;;1.52;0.50;;;;;;;29.84;25.15;100113.22;5050244;28;20248;-64
2022/05/25 09:48:36;;;;;;;0.65;0.50;;;;;;;28.74;25.64;100104.84;5045213;28;20186;-64
2022/05/25 09:51:01;;;;;;;0.63;0.57;;;;;;;29.86;25.37;100111.97;5038489;28;20259;-64
2022/05/25 09:53:37;;;;;;;2.77;0.50;;;;;;;31.15;23.23;100118.13;5056887;28;20209;-64
2022/05/25 09:56:09;;;;;;;0.80;0.63;;;;;;;29.65;24.30;100102.47;5035809;28;20928;-68
2022/05/25 09:58:42;;;;;;;2.60;0.60;;;;;;;30.87;21.71;100108.72;5062928;28;20210;-64
2022/05/25 10:01:28;;;;;;;0.55;0.32;;;;;;;30.67;22.56;100111.53;5054993;28;20672;-63
2022/05/25 10:03:54;;;;;;;4.53;0.80;;;;;;;30.55;23.12;100116.72;5029082;28;20190;-63
2022/05/25 10:06:26;;;;;;;2.25;0.60;;;;;;;30.97;22.65;100113.53;5030323;28;20645;-63
2022/05/25 10:09:11;;;;;;;0.50;0.32;;;;;;;30.93;21.48;100115.81;5062353;28;20186;-64
2022/05/25 10:11:52;;;;;;;1.90;0.73;;;;;;;29.76;23.51;100112.41;5045040;28;20307;-65
2022/05/25 10:14:27;;;;;;;1.05;0.70;;;;;;;28.43;25.05;100118.63;5043358;28;20216;-65
2022/05/25 10:16:57;;;;;;;1.95;0.47;;;;;;;28.51;25.11;100113.16;5031134;28;20208;-65
2022/05/25 10:19:23;;;;;;;0.70;0.32;;;;;;;29.36;23.90;100109.09;5038274;28;20217;-65
2022/05/25 10:22:12;;;;;;;2.38;0.60;;;;;;;31.58;21.46;100113.75;5041429;28;20225;-64
2022/05/25 10:24:43;;;;;;;0.40;0.30;;;;;;;30.61;21.46;100109.75;5033839;28;20209;-64
2022/05/25 10:27:29;;;;;;;1.80;0.50;;;;;;;31.85;21.32;100111.63;5034181;28;20186;-65
2022/05/25 10:38:30;;;;;;;1.17;1.00;;;;;;;29.33;23.38;100102.38;5038507;28;20235;-63
2022/05/25 10:40:57;;;;;;;0.60;0.47;;;;;;;28.26;25.48;100100.47;5052926;28;20227;-64
2022/05/25 10:43:26;;;;;;;2.17;0.63;;;;;;;27.86;26.81;100097.72;5071308;28;20169;-65
2022/05/25 10:45:53;;;;;;;0.80;0.50;;;;;;;26.94;26.06;100096.94;5046130;28;20186;-65
2022/05/25 10:48:49;;;;;;;0.40;0.40;;;;;;;25.66;27.35;100085.03;5032385;28;20193;-65
2022/05/25 10:51:27;;;;;;;3.25;1.02;;;;;;;25.12;27.28;100084.28;5041934;28;20216;-63
2022/05/25 10:57:22;;;;;;;1.95;0.35;;;;;;;23.38;28.53;100078.34;5047176;28;20204;-65
2022/05/25 11:00:05;;;;;;;0.35;0.35;;;;;;;23.56;28.86;100077.34;5030087;28;20287;-64
2022/05/25 11:02:52;;;;;;;1.50;0.68;;;;;;;22.96;29.70;100077.59;5015137;28;20233;-66
2022/05/25 11:05:37;;;;;;;0.67;0.37;;;;;;;23.31;30.70;100065.09;5053708;28;20182;-64
2022/05/25 11:08:22;;;;;;;1.10;0.50;;;;;;;23.00;30.47;100080.72;5056366;28;20657;-66
2022/05/25 11:11:03;;;;;;;0.70;0.50;;;;;;;22.88;29.98;100085.47;5047914;28;20251;-64
2022/05/25 11:13:51;;;;;;;1.80;0.37;;;;;;;23.13;30.52;100080.19;5056399;28;20197;-65
2022/05/25 11:16:31;;;;;;;1.57;0.60;;;;;;;23.42;30.74;100079.69;5061858;28;20235;-64
2022/05/25 11:19:15;;;;;;;1.73;0.67;;;;;;;23.28;28.32;100091.69;5039957;28;20225;-65
2022/05/25 11:22:04;;;;;;;0.60;0.40;;;;;;;23.18;28.77;100089.25;5062958;28;20778;-64
2022/05/25 11:25:07;;;;;;;1.53;0.57;;;;;;;23.00;28.61;100085.97;5040694;28;20637;-64
2022/05/25 11:27:45;;;;;;;1.90;0.70;;;;;;;23.00;30.46;100091.22;5049655;28;20185;-67
2022/05/25 11:30:29;;;;;;;2.27;1.50;;;;;;;22.68;30.03;100092.84;5017880;28;20177;-62
2022/05/25 11:33:51;;;;;;;2.73;2.17;;;;;;;22.67;30.21;100091.19;5064222;28;20263;-63
2022/05/25 11:36:35;;;;;;;0.87;0.77;;;;;;;22.16;32.45;100091.25;5044964;28;20454;-66
2022/05/25 11:39:29;;;;;;;3.77;3.43;;;;;;;22.53;30.27;100088.22;5052576;28;20228;-66
2022/05/25 11:42:10;;;;;;;4.53;4.07;;;;;;;22.63;29.71;100085.47;5039442;28;20243;-64
2022/05/25 11:44:50;;;;;;;4.13;3.80;;;;;;;22.74;30.83;100092.19;5048060;28;20633;-65
2022/05/25 11:47:43;;;;;;;1.13;0.83;;;;;;;22.29;32.24;100075.06;5050666;28;20200;-64
2022/05/25 11:50:21;;;;;;;2.30;1.70;;;;;;;22.11;31.18;100085.69;5042361;28;20234;-63
2022/05/25 11:53:12;;;;;;;1.23;0.70;;;;;;;21.76;31.25;100081.28;5044875;28;20254;-66
2022/05/25 11:55:48;;;;;;;1.37;1.07;;;;;;;21.96;32.71;100075.00;5052166;28;20648;-63
2022/05/25 11:58:25;;;;;;;2.17;0.70;;;;;;;22.34;31.99;100075.38;5043539;28;20209;-64
2022/05/25 12:01:15;;;;;;;1.23;0.90;;;;;;;22.76;31.22;100069.25;5022076;28;20236;-63
2022/05/25 12:04:27;;;;;;;1.27;0.80;;;;;;;22.79;31.21;100082.03;5024797;28;20573;-63
2022/05/25 12:07:10;;;;;;;3.80;3.10;;;;;;;22.86;31.27;100079.56;5012326;28;20541;-64
2022/05/25 12:09:43;;;;;;;1.83;0.87;;;;;;;22.92;31.40;100068.41;5045408;28;20193;-64
2022/05/25 12:12:15;;;;;;;2.77;0.73;;;;;;;23.15;29.51;100075.59;5013215;28;20304;-63